createdAt,value
2018-10-19T00:00:53.146Z,88.25
2018-10-19T00:01:53.409Z,88.26
2018-10-19T00:02:53.790Z,88.14
2018-10-19T00:03:54.064Z,88.05
2018-10-19T00:04:54.361Z,87.92
2018-10-19T00:05:54.772Z,88.19
2018-10-19T00:06:55.628Z,87.96
2018-10-19T00:07:56.000Z,88.19
2018-10-19T00:08:55.250Z,88.05
2018-10-19T00:09:55.567Z,88.11
2018-10-19T00:10:57.378Z,88.14
2018-10-19T00:11:57.959Z,88.13
2018-10-19T00:12:58.259Z,88.16
2018-10-19T00:13:58.940Z,88.16
2018-10-19T00:14:59.489Z,87.99
2018-10-19T00:15:58.901Z,88.19
2018-10-19T00:17:00.632Z,88.46
2018-10-19T00:18:00.066Z,88.40
2018-10-19T00:19:01.361Z,88.44
2018-10-19T00:19:10.096Z,88.01
2018-10-19T00:20:11.416Z,88.00
2018-10-19T00:21:12.039Z,87.64
2018-10-19T00:22:11.687Z,88.13
2018-10-19T00:23:11.773Z,88.29
2018-10-19T00:24:12.168Z,88.35
2018-10-19T00:25:13.477Z,88.73
2018-10-19T00:26:13.296Z,88.88
2018-10-19T00:27:15.726Z,88.75
2018-10-19T00:28:14.065Z,89.09
2018-10-19T00:29:15.526Z,89.20
2018-10-19T00:30:15.072Z,89.06
2018-10-19T00:31:16.360Z,88.58
2018-10-19T00:32:17.035Z,88.43
2018-10-19T00:33:16.574Z,88.32
2018-10-19T00:34:17.879Z,88.47
2018-10-19T00:35:18.171Z,88.66
2018-10-19T00:36:18.826Z,88.76
2018-10-19T00:37:19.115Z,88.41
2018-10-19T00:38:19.699Z,88.31
2018-10-19T00:39:20.051Z,88.11
2018-10-19T00:40:20.583Z,88.35
2018-10-19T00:41:19.927Z,88.30
2018-10-19T00:42:21.316Z,88.59
2018-10-19T00:43:21.949Z,88.56
2018-10-19T00:44:22.753Z,88.84
2018-10-19T00:45:23.150Z,88.91
2018-10-19T00:46:23.747Z,89.09
2018-10-19T00:47:24.102Z,89.38
2018-10-19T00:48:24.729Z,89.19
2018-10-19T00:49:25.303Z,89.08
2018-10-19T00:50:25.856Z,89.28
2018-10-19T00:51:26.181Z,89.21
2018-10-19T00:52:26.813Z,89.13
2018-10-19T00:53:27.213Z,89.28
2018-10-19T00:54:27.523Z,89.54
2018-10-19T00:55:28.409Z,89.66
2018-10-19T00:56:28.969Z,89.69
2018-10-19T00:57:29.322Z,89.45
2018-10-19T00:58:29.388Z,89.38
2018-10-19T00:59:29.781Z,89.40
2018-10-19T01:00:30.285Z,89.28
2018-10-19T01:01:30.644Z,89.85
2018-10-19T01:02:31.162Z,89.95
2018-10-19T01:03:31.549Z,90.12
2018-10-19T01:04:31.916Z,90.27
2018-10-19T01:05:32.274Z,90.67
2018-10-19T01:06:32.657Z,90.42
2018-10-19T01:07:33.223Z,90.63
2018-10-19T01:08:33.570Z,90.29
2018-10-19T01:09:33.875Z,90.70
2018-10-19T01:10:34.202Z,90.49
2018-10-19T01:10:44.324Z,90.49
2018-10-19T01:11:45.566Z,90.49
2018-10-19T01:12:45.904Z,90.58
2018-10-19T01:13:46.411Z,90.60
2018-10-19T01:14:46.666Z,90.97
2018-10-19T01:15:46.984Z,91.21
2018-10-19T01:16:47.401Z,90.63
2018-10-19T01:17:47.778Z,91.06
2018-10-19T01:18:48.079Z,90.84
2018-10-19T01:19:48.480Z,91.46
2018-10-19T01:20:47.779Z,91.45
2018-10-19T01:21:49.285Z,91.44
2018-10-19T01:22:49.346Z,91.31
2018-10-19T01:23:49.940Z,91.47
2018-10-19T01:24:50.275Z,91.46
2018-10-19T01:25:50.850Z,91.79
2018-10-19T01:26:50.306Z,92.17
2018-10-19T01:27:52.661Z,91.81
2018-10-19T01:28:51.972Z,92.16
2018-10-19T01:29:52.568Z,92.29
2018-10-19T01:30:53.025Z,91.92
2018-10-19T01:31:53.366Z,91.91
2018-10-19T01:32:53.944Z,92.05
2018-10-19T01:33:54.422Z,92.41
2018-10-19T01:34:54.773Z,92.46
2018-10-19T01:35:54.350Z,92.20
2018-10-19T01:36:55.729Z,92.44
2018-10-19T01:37:56.057Z,92.29
2018-10-19T01:38:56.468Z,92.63
2018-10-19T01:39:55.686Z,92.38
2018-10-19T01:40:57.269Z,92.56
2018-10-19T01:41:56.480Z,92.36
2018-10-19T01:42:57.719Z,92.82
2018-10-19T01:43:58.006Z,92.34
2018-10-19T01:44:58.434Z,92.34
2018-10-19T01:45:58.697Z,92.32
2018-10-19T01:46:59.263Z,92.44
2018-10-19T01:47:58.516Z,92.45
2018-10-19T01:49:00.187Z,92.65
2018-10-19T01:50:00.543Z,92.43
2018-10-19T01:51:00.949Z,92.24
2018-10-19T01:52:00.152Z,92.36
2018-10-19T01:53:01.691Z,92.65
2018-10-19T01:54:01.010Z,93.03
2018-10-19T01:55:02.366Z,93.16
2018-10-19T01:56:02.687Z,93.25
2018-10-19T01:57:03.071Z,93.22
2018-10-19T01:58:02.352Z,92.86
2018-10-19T01:59:03.918Z,93.13
2018-10-19T02:00:03.337Z,93.03
2018-10-19T02:01:04.856Z,93.19
2018-10-19T02:02:05.169Z,93.52
2018-10-19T02:03:05.587Z,93.21
2018-10-19T02:04:04.956Z,93.20
2018-10-19T02:04:13.045Z,93.10
2018-10-19T02:05:14.388Z,93.15
2018-10-19T02:06:13.616Z,93.28
2018-10-19T02:07:14.958Z,93.53
2018-10-19T02:08:15.344Z,93.44
2018-10-19T02:09:15.637Z,93.55
2018-10-19T02:10:16.516Z,93.79
2018-10-19T02:11:16.871Z,93.55
2018-10-19T02:12:17.209Z,93.89
2018-10-19T02:13:17.501Z,93.91
2018-10-19T02:14:17.822Z,94.05
2018-10-19T02:15:18.289Z,94.30
2018-10-19T02:16:17.592Z,93.81
2018-10-19T02:17:18.891Z,94.04
2018-10-19T02:18:19.173Z,94.32
2018-10-19T02:19:19.477Z,94.30
2018-10-19T02:20:19.758Z,94.71
2018-10-19T02:21:20.177Z,95.17
2018-10-19T02:22:20.522Z,95.28
2018-10-19T02:23:20.797Z,95.01
2018-10-19T02:24:21.160Z,94.76
2018-10-19T02:25:21.826Z,94.32
2018-10-19T02:26:22.167Z,94.47
2018-10-19T02:27:22.847Z,94.36
2018-10-19T02:28:23.185Z,94.47
2018-10-19T02:29:23.549Z,94.53
2018-10-19T02:30:23.891Z,94.61
2018-10-19T02:31:24.439Z,94.61
2018-10-19T02:32:25.010Z,94.98
2018-10-19T02:33:25.348Z,94.50
2018-10-19T02:34:25.640Z,94.55
2018-10-19T02:35:26.006Z,94.63
2018-10-19T02:36:27.510Z,95.20
2018-10-19T02:37:26.775Z,95.41
2018-10-19T02:38:27.372Z,95.94
2018-10-19T02:39:27.830Z,95.93
2018-10-19T02:40:28.245Z,95.77
2018-10-19T02:41:28.868Z,95.39
2018-10-19T02:42:29.262Z,95.39
2018-10-19T02:43:29.680Z,95.14
2018-10-19T02:44:30.030Z,95.31
2018-10-19T02:45:30.324Z,95.03
2018-10-19T02:46:30.722Z,95.30
2018-10-19T02:47:31.208Z,95.60
2018-10-19T02:48:31.518Z,95.39
2018-10-19T02:49:31.975Z,95.35
2018-10-19T02:50:32.313Z,95.70
2018-10-19T02:50:41.197Z,95.32
2018-10-19T02:51:41.795Z,95.26
2018-10-19T02:52:42.093Z,95.47
2018-10-19T02:53:42.364Z,95.55
2018-10-19T02:54:42.683Z,94.83
2018-10-19T02:55:43.079Z,95.50
2018-10-19T02:56:43.640Z,95.45
2018-10-19T02:57:43.968Z,95.59
2018-10-19T02:58:44.232Z,95.21
2018-10-19T02:59:44.708Z,95.21
2018-10-19T03:00:45.060Z,95.77
2018-10-19T03:01:45.579Z,95.64
2018-10-19T03:02:45.851Z,95.32
2018-10-19T03:03:46.315Z,95.15
2018-10-19T03:04:46.831Z,95.36
2018-10-19T03:05:47.366Z,95.49
2018-10-19T03:06:47.842Z,95.09
2018-10-19T03:07:48.283Z,95.23
2018-10-19T03:08:48.738Z,95.84
2018-10-19T03:09:49.097Z,95.63
2018-10-19T03:10:49.648Z,95.62
2018-10-19T03:11:48.906Z,95.54
2018-10-19T03:12:50.221Z,95.48
2018-10-19T03:13:50.638Z,95.72
2018-10-19T03:14:51.031Z,96.11
2018-10-19T03:15:51.466Z,96.33
2018-10-19T03:16:52.077Z,95.97
2018-10-19T03:17:51.382Z,96.02
2018-10-19T03:18:53.154Z,95.98
2018-10-19T03:19:53.778Z,95.85
2018-10-19T03:20:54.393Z,96.24
2018-10-19T03:21:53.737Z,96.40
2018-10-19T03:22:55.168Z,96.74
2018-10-19T03:23:55.677Z,96.66
2018-10-19T03:24:56.033Z,96.40
2018-10-19T03:25:56.484Z,96.83
2018-10-19T03:26:56.866Z,96.99
2018-10-19T03:27:57.434Z,96.72
2018-10-19T03:28:57.995Z,96.77
2018-10-19T03:29:57.768Z,97.00
2018-10-19T03:30:59.196Z,97.01
2018-10-19T03:31:58.425Z,97.34
2018-10-19T03:32:59.946Z,97.53
2018-10-19T03:33:59.215Z,97.49
2018-10-19T03:35:00.580Z,97.66
2018-10-19T03:35:59.894Z,97.67
2018-10-19T03:37:01.602Z,98.20
2018-10-19T03:38:02.013Z,97.54
2018-10-19T03:39:02.377Z,97.33
2018-10-19T03:40:01.961Z,97.13
2018-10-19T03:41:03.314Z,97.29
2018-10-19T03:42:03.649Z,97.29
2018-10-19T03:42:16.777Z,97.48
2018-10-19T03:43:15.075Z,97.52
2018-10-19T03:44:15.419Z,97.58
2018-10-19T03:45:15.851Z,97.77
2018-10-19T03:46:15.096Z,98.20
2018-10-19T03:47:16.812Z,97.97
2018-10-19T03:48:16.187Z,98.19
2018-10-19T03:49:17.457Z,97.64
2018-10-19T03:50:16.719Z,97.80
2018-10-19T03:51:18.101Z,97.94
2018-10-19T03:52:17.294Z,97.45
2018-10-19T03:53:18.762Z,96.88
2018-10-19T03:54:18.033Z,97.21
2018-10-19T03:55:19.305Z,97.53
2018-10-19T03:56:19.991Z,97.87
2018-10-19T03:57:20.417Z,97.73
2018-10-19T03:58:20.801Z,97.25
2018-10-19T03:59:21.254Z,97.40
2018-10-19T04:00:21.532Z,97.51
2018-10-19T04:01:22.321Z,97.21
2018-10-19T04:02:22.602Z,97.01
2018-10-19T04:03:22.983Z,96.67
2018-10-19T04:04:22.389Z,97.04
2018-10-19T04:05:23.883Z,97.57
2018-10-19T04:06:24.181Z,97.26
2018-10-19T04:07:24.573Z,96.87
2018-10-19T04:08:24.932Z,97.00
2018-10-19T04:09:25.292Z,97.01
2018-10-19T04:10:25.685Z,97.14
2018-10-19T04:11:26.181Z,97.23
2018-10-19T04:12:26.521Z,97.17
2018-10-19T04:13:27.350Z,97.29
2018-10-19T04:14:27.880Z,97.15
2018-10-19T04:15:28.239Z,96.70
2018-10-19T04:16:28.537Z,96.16
2018-10-19T04:17:28.892Z,96.07
2018-10-19T04:18:29.157Z,96.52
2018-10-19T04:19:29.523Z,96.37
2018-10-19T04:20:31.046Z,96.74
2018-10-19T04:21:30.515Z,96.87
2018-10-19T04:22:33.649Z,96.81
2018-10-19T04:23:31.266Z,96.80
2018-10-19T04:24:31.630Z,97.17
2018-10-19T04:25:32.135Z,97.10
2018-10-19T04:26:32.413Z,97.66
2018-10-19T04:27:33.084Z,97.29
2018-10-19T04:28:32.306Z,96.95
2018-10-19T04:29:33.720Z,97.17
2018-10-19T04:30:34.031Z,97.74
2018-10-19T04:30:43.066Z,97.64
2018-10-19T04:31:43.292Z,97.64
2018-10-19T04:32:43.610Z,97.78
2018-10-19T04:33:43.994Z,97.84
2018-10-19T04:34:44.335Z,98.07
2018-10-19T04:35:44.600Z,97.96
2018-10-19T04:36:45.093Z,97.80
2018-10-19T04:37:45.562Z,97.85
2018-10-19T04:38:45.896Z,97.90
2018-10-19T04:39:47.253Z,97.87
2018-10-19T04:40:46.556Z,97.66
2018-10-19T04:41:47.302Z,97.63
2018-10-19T04:42:46.508Z,97.68
2018-10-19T04:43:47.909Z,98.05
2018-10-19T04:44:48.184Z,98.34
2018-10-19T04:45:48.496Z,98.88
2018-10-19T04:46:48.788Z,98.96
2018-10-19T04:47:49.300Z,98.86
2018-10-19T04:48:48.405Z,98.38
2018-10-19T04:49:49.700Z,98.89
2018-10-19T04:50:50.035Z,98.71
2018-10-19T04:51:50.416Z,98.60
2018-10-19T04:52:50.900Z,98.72
2018-10-19T04:53:51.251Z,98.71
2018-10-19T04:54:50.477Z,98.72
2018-10-19T04:55:51.906Z,98.82
2018-10-19T04:56:52.248Z,98.57
2018-10-19T04:57:52.750Z,98.52
2018-10-19T04:58:53.077Z,98.67
2018-10-19T04:59:53.417Z,98.84
2018-10-19T05:00:53.959Z,98.41
2018-10-19T05:01:54.214Z,98.30
2018-10-19T05:02:54.861Z,98.32
2018-10-19T05:03:54.428Z,98.34
2018-10-19T05:04:55.774Z,98.11
2018-10-19T05:05:56.101Z,97.88
2018-10-19T05:06:55.424Z,97.80
2018-10-19T05:07:56.970Z,98.20
2018-10-19T05:08:56.210Z,98.00
2018-10-19T05:09:57.487Z,97.87
2018-10-19T05:10:57.835Z,98.34
2018-10-19T05:11:57.210Z,97.79
2018-10-19T05:12:58.913Z,97.81
2018-10-19T05:13:58.182Z,97.65
2018-10-19T05:14:58.536Z,97.98
2018-10-19T05:15:59.782Z,97.79
2018-10-19T05:17:00.182Z,97.76
2018-10-19T05:17:59.619Z,97.87
2018-10-19T05:19:00.973Z,97.84
2018-10-19T05:20:01.358Z,97.99
2018-10-19T05:21:01.910Z,98.17
2018-10-19T05:22:02.452Z,98.15
2018-10-19T05:22:11.168Z,98.09
2018-10-19T05:23:11.604Z,98.13
2018-10-19T05:24:11.308Z,98.34
2018-10-19T05:25:12.608Z,98.15
2018-10-19T05:26:12.942Z,98.36
2018-10-19T05:27:12.457Z,98.20
2018-10-19T05:28:12.939Z,98.84
2018-10-19T05:29:13.693Z,98.41
2018-10-19T05:30:13.959Z,98.52
2018-10-19T05:31:15.618Z,98.31
2018-10-19T05:32:16.034Z,98.37
2018-10-19T05:33:15.212Z,98.41
2018-10-19T05:34:16.552Z,98.33
2018-10-19T05:35:16.957Z,98.77
2018-10-19T05:36:16.530Z,98.82
2018-10-19T05:37:18.459Z,98.59
2018-10-19T05:38:19.919Z,98.44
2018-10-19T05:39:19.560Z,98.78
2018-10-19T05:40:19.923Z,98.85
2018-10-19T05:41:20.505Z,98.92
2018-10-19T05:42:20.902Z,98.98
2018-10-19T05:43:21.447Z,99.01
2018-10-19T05:44:21.746Z,98.56
2018-10-19T05:45:22.071Z,98.21
2018-10-19T05:46:22.495Z,98.55
2018-10-19T05:47:22.826Z,98.52
2018-10-19T05:48:23.510Z,98.61
2018-10-19T05:49:23.821Z,98.92
2018-10-19T05:50:24.152Z,99.01
2018-10-19T05:51:24.548Z,98.83
2018-10-19T05:52:25.112Z,99.14
2018-10-19T05:53:25.399Z,98.59
2018-10-19T05:54:25.718Z,98.87
2018-10-19T05:55:26.241Z,98.69
2018-10-19T05:56:26.579Z,98.76
2018-10-19T05:57:27.251Z,98.86
2018-10-19T05:58:27.578Z,98.88
2018-10-19T05:59:27.906Z,99.03
2018-10-19T06:00:28.266Z,98.95
2018-10-19T06:01:28.612Z,98.81
2018-10-19T06:02:29.101Z,98.99
2018-10-19T06:03:28.539Z,99.09
2018-10-19T06:04:30.026Z,98.81
2018-10-19T06:05:30.585Z,98.32
2018-10-19T06:06:30.978Z,97.94
2018-10-19T06:07:31.327Z,97.23
2018-10-19T06:08:31.775Z,97.48
2018-10-19T06:09:32.093Z,97.77
2018-10-19T06:10:32.471Z,97.53
2018-10-19T06:11:32.836Z,97.19
2018-10-19T06:12:33.119Z,97.32
2018-10-19T06:13:33.511Z,97.21
2018-10-19T06:14:32.753Z,97.44
2018-10-19T06:14:41.447Z,97.88
2018-10-19T06:15:42.705Z,97.89
2018-10-19T06:16:43.027Z,97.86
2018-10-19T06:17:43.180Z,97.83
2018-10-19T06:18:43.627Z,97.62
2018-10-19T06:19:44.163Z,97.26
2018-10-19T06:20:44.767Z,97.17
2018-10-19T06:21:45.180Z,97.44
2018-10-19T06:22:45.506Z,97.85
2018-10-19T06:23:46.189Z,97.52
2018-10-19T06:24:46.552Z,97.77
2018-10-19T06:25:47.179Z,98.15
2018-10-19T06:26:46.582Z,97.83
2018-10-19T06:27:48.015Z,97.70
2018-10-19T06:28:48.423Z,97.56
2018-10-19T06:29:48.869Z,97.74
2018-10-19T06:30:49.186Z,97.82
2018-10-19T06:31:49.524Z,97.91
2018-10-19T06:32:49.956Z,98.24
2018-10-19T06:33:50.567Z,98.50
2018-10-19T06:34:50.074Z,98.66
2018-10-19T06:35:51.411Z,98.42
2018-10-19T06:36:52.019Z,98.33
2018-10-19T06:37:52.476Z,98.42
2018-10-19T06:38:52.838Z,98.31
2018-10-19T06:39:53.209Z,98.73
2018-10-19T06:40:53.862Z,98.76
2018-10-19T06:41:53.102Z,98.57
2018-10-19T06:42:54.646Z,98.29
2018-10-19T06:43:55.197Z,98.29
2018-10-19T06:44:55.498Z,98.43
2018-10-19T06:45:56.139Z,98.41
2018-10-19T06:46:56.916Z,98.73
2018-10-19T06:47:57.206Z,98.69
2018-10-19T06:48:57.603Z,98.75
2018-10-19T06:49:57.038Z,98.70
2018-10-19T06:50:58.347Z,98.71
2018-10-19T06:51:58.673Z,98.51
2018-10-19T06:52:59.026Z,98.29
2018-10-19T06:53:58.250Z,98.30
2018-10-19T06:54:59.593Z,98.37
2018-10-19T06:55:59.932Z,98.32
2018-10-19T06:56:59.533Z,98.39
2018-10-19T06:58:01.064Z,98.38
2018-10-19T06:59:01.554Z,98.05
2018-10-19T07:00:00.824Z,97.48
2018-10-19T07:01:02.179Z,97.49
2018-10-19T07:02:01.613Z,97.20
2018-10-19T07:03:01.891Z,97.45
2018-10-19T07:04:03.180Z,97.32
2018-10-19T07:05:03.619Z,97.15
2018-10-19T07:06:02.954Z,97.46
2018-10-19T07:07:03.241Z,97.55
2018-10-19T07:07:11.831Z,97.17
2018-10-19T07:08:13.260Z,97.15
2018-10-19T07:09:12.504Z,96.93
2018-10-19T07:10:13.867Z,97.03
2018-10-19T07:11:14.289Z,97.02
2018-10-19T07:12:13.645Z,96.83
2018-10-19T07:13:13.820Z,96.77
2018-10-19T07:14:15.250Z,96.77
2018-10-19T07:15:14.502Z,96.52
2018-10-19T07:16:15.828Z,96.60
2018-10-19T07:17:16.308Z,96.59
2018-10-19T07:18:15.581Z,96.63
2018-10-19T07:19:16.881Z,96.55
2018-10-19T07:20:17.275Z,96.01
2018-10-19T07:21:17.577Z,96.12
2018-10-19T07:22:17.830Z,96.17
2018-10-19T07:23:18.115Z,96.09
2018-10-19T07:24:18.408Z,96.01
2018-10-19T07:25:18.826Z,96.24
2018-10-19T07:26:19.159Z,95.63
2018-10-19T07:27:19.525Z,95.75
2018-10-19T07:28:19.778Z,95.52
2018-10-19T07:29:20.351Z,95.21
2018-10-19T07:30:20.784Z,95.31
2018-10-19T07:31:21.203Z,95.00
2018-10-19T07:32:21.543Z,94.84
2018-10-19T07:33:21.830Z,94.69
2018-10-19T07:34:22.365Z,94.54
2018-10-19T07:35:22.698Z,93.99
2018-10-19T07:36:23.193Z,93.80
2018-10-19T07:37:22.502Z,94.04
2018-10-19T07:38:23.855Z,94.25
2018-10-19T07:39:24.245Z,94.51
2018-10-19T07:40:24.548Z,94.72
2018-10-19T07:41:24.926Z,94.08
2018-10-19T07:42:25.486Z,93.68
2018-10-19T07:43:24.793Z,93.48
2018-10-19T07:44:26.415Z,93.79
2018-10-19T07:45:26.863Z,93.88
2018-10-19T07:46:27.223Z,93.61
2018-10-19T07:47:27.633Z,93.56
2018-10-19T07:48:26.955Z,93.46
2018-10-19T07:49:27.593Z,93.33
2018-10-19T07:50:30.184Z,93.39
2018-10-19T07:51:29.928Z,92.72
2018-10-19T07:52:30.423Z,92.86
2018-10-19T07:53:30.810Z,92.65
2018-10-19T07:54:31.224Z,92.56
2018-10-19T07:55:30.544Z,92.33
2018-10-19T07:56:31.808Z,91.90
2018-10-19T07:57:32.511Z,91.70
2018-10-19T07:58:32.892Z,91.64
2018-10-19T07:59:33.694Z,91.39
2018-10-19T07:59:42.825Z,91.18
2018-10-19T08:00:43.138Z,91.10
2018-10-19T08:01:42.413Z,91.21
2018-10-19T08:02:43.748Z,90.41
2018-10-19T08:03:44.020Z,90.29
2018-10-19T08:04:44.396Z,91.01
2018-10-19T08:05:44.833Z,90.74
2018-10-19T08:06:45.629Z,90.85
2018-10-19T08:07:46.133Z,90.74
2018-10-19T08:08:46.524Z,91.01
2018-10-19T08:09:46.582Z,90.73
2018-10-19T08:10:46.792Z,90.58
2018-10-19T08:11:46.111Z,90.38
2018-10-19T08:12:47.681Z,90.61
2018-10-19T08:13:48.222Z,90.71
2018-10-19T08:14:48.477Z,90.82
2018-10-19T08:15:48.764Z,91.39
2018-10-19T08:16:49.127Z,91.09
2018-10-19T08:17:50.051Z,90.58
2018-10-19T08:18:50.317Z,90.72
2018-10-19T08:19:51.325Z,90.58
2018-10-19T08:20:51.607Z,90.73
2018-10-19T08:21:52.234Z,90.70
2018-10-19T08:22:52.581Z,90.56
2018-10-19T08:23:52.883Z,90.57
2018-10-19T08:24:53.155Z,90.55
2018-10-19T08:25:53.520Z,90.72
2018-10-19T08:26:53.824Z,90.93
2018-10-19T08:27:54.198Z,91.30
2018-10-19T08:28:54.659Z,90.68
2018-10-19T08:29:55.014Z,90.49
2018-10-19T08:30:55.311Z,90.28
2018-10-19T08:31:55.535Z,90.21
2018-10-19T08:32:54.853Z,90.20
2018-10-19T08:33:56.355Z,90.04
2018-10-19T08:34:56.677Z,90.20
2018-10-19T08:35:57.267Z,90.10
2018-10-19T08:36:59.009Z,90.59
2018-10-19T08:37:57.645Z,89.95
2018-10-19T08:38:59.206Z,89.65
2018-10-19T08:40:09.408Z,88.98
2018-10-19T08:40:59.895Z,88.90
2018-10-19T08:41:59.645Z,88.70
2018-10-19T08:43:00.904Z,88.81
2018-10-19T08:44:00.152Z,88.74
2018-10-19T08:45:02.089Z,88.49
2018-10-19T08:46:01.731Z,88.16
2018-10-19T08:47:02.110Z,88.01
2018-10-19T08:48:02.402Z,88.06
2018-10-19T08:48:11.344Z,87.97
2018-10-19T08:49:14.840Z,87.86
2018-10-19T08:50:11.958Z,87.96
2018-10-19T08:51:13.434Z,87.62
2018-10-19T08:52:12.888Z,87.75
2018-10-19T08:53:14.349Z,87.75
2018-10-19T08:54:13.564Z,87.23
2018-10-19T08:55:14.929Z,87.58
2018-10-19T08:56:14.220Z,87.50
2018-10-19T08:57:15.554Z,87.46
2018-10-19T08:58:14.920Z,87.22
2018-10-19T08:59:18.443Z,87.39
2018-10-19T09:00:16.767Z,87.59
2018-10-19T09:01:16.294Z,87.31
2018-10-19T09:02:17.752Z,87.18
2018-10-19T09:03:18.102Z,86.79
2018-10-19T09:04:22.389Z,86.68
2018-10-19T09:05:18.846Z,86.48
2018-10-19T09:06:17.772Z,85.35
2018-10-19T09:07:19.204Z,84.46
2018-10-19T09:08:19.777Z,84.36
2018-10-19T09:09:20.443Z,83.40
2018-10-19T09:10:20.701Z,83.39
2018-10-19T09:11:21.126Z,82.87
2018-10-19T09:12:23.487Z,82.41
2018-10-19T09:13:20.654Z,82.10
2018-10-19T09:14:22.026Z,81.88
2018-10-19T09:15:23.006Z,81.43
2018-10-19T09:16:22.277Z,80.92
2018-10-19T09:17:23.643Z,80.84
2018-10-19T09:18:23.891Z,80.26
2018-10-19T09:19:23.263Z,80.68
2018-10-19T09:20:27.644Z,79.75
2018-10-19T09:21:24.953Z,80.12
2018-10-19T09:22:25.257Z,80.10
2018-10-19T09:23:25.909Z,80.11
2018-10-19T09:24:25.956Z,79.81
2018-10-19T09:25:26.434Z,79.34
2018-10-19T09:26:26.931Z,79.45
2018-10-19T09:27:27.048Z,79.37
2018-10-19T09:28:27.317Z,79.22
2018-10-19T09:29:27.742Z,78.70
2018-10-19T09:30:27.389Z,78.72
2018-10-19T09:31:28.762Z,78.56
2018-10-19T09:32:29.597Z,78.62
2018-10-19T09:33:28.892Z,78.91
2018-10-19T09:34:30.423Z,78.86
2018-10-19T09:35:30.937Z,78.39
2018-10-19T09:36:30.450Z,78.45
2018-10-19T09:37:30.471Z,78.51
2018-10-19T09:38:31.898Z,78.75
2018-10-19T09:39:32.239Z,78.61
2018-10-19T09:40:32.568Z,78.90
2018-10-19T09:41:34.234Z,78.90
2018-10-19T09:42:52.085Z,78.26
2018-10-19T09:43:32.997Z,78.36
2018-10-19T09:44:16.503Z,77.88
2018-10-19T09:45:15.050Z,77.79
2018-10-19T09:46:12.029Z,77.16
2018-10-19T09:47:13.809Z,77.17
2018-10-19T09:48:13.335Z,77.27
2018-10-19T09:49:13.669Z,77.00
2018-10-19T09:50:13.977Z,77.11
2018-10-19T09:51:15.462Z,77.10
2018-10-19T09:52:14.393Z,77.11
2018-10-19T09:53:15.804Z,77.00
2018-10-19T09:54:15.198Z,77.68
2018-10-19T09:55:15.775Z,77.25
2018-10-19T09:56:16.167Z,77.08
2018-10-19T09:57:16.595Z,76.47
2018-10-19T09:58:16.997Z,76.47
2018-10-19T09:59:18.341Z,76.00
2018-10-19T10:00:17.647Z,76.15
2018-10-19T10:01:19.071Z,76.14
2018-10-19T10:02:19.643Z,75.81
2018-10-19T10:03:19.998Z,75.88
2018-10-19T10:06:03.080Z,76.29
2018-10-19T10:06:59.317Z,76.24
2018-10-19T10:07:59.686Z,76.19
2018-10-19T10:08:59.945Z,76.40
2018-10-19T10:10:00.249Z,76.52
2018-10-19T10:11:01.660Z,76.74
2018-10-19T10:12:00.992Z,77.21
2018-10-19T10:13:02.495Z,76.88
2018-10-19T10:14:01.859Z,76.61
2018-10-19T10:15:03.280Z,76.85
2018-10-19T10:16:02.512Z,77.01
2018-10-19T10:17:04.469Z,76.75
2018-10-19T10:18:03.676Z,76.97
2018-10-19T10:19:05.101Z,76.46
2018-10-19T10:20:04.330Z,76.60
2018-10-19T10:21:05.771Z,76.58
2018-10-19T10:22:06.214Z,76.52
2018-10-19T10:23:05.543Z,76.26
2018-10-19T10:24:06.820Z,76.16
2018-10-19T10:25:07.117Z,75.69
2018-10-19T10:26:07.489Z,75.43
2018-10-19T10:27:07.778Z,75.36
2018-10-19T10:28:08.623Z,74.97
2018-10-19T10:29:10.587Z,74.67
2018-10-19T10:30:08.404Z,74.24
2018-10-19T10:31:09.777Z,74.15
2018-10-19T10:32:09.144Z,74.11
2018-10-19T10:33:09.797Z,73.64
2018-10-19T10:34:11.410Z,73.33
2018-10-19T10:35:10.631Z,72.79
2018-10-19T10:36:11.937Z,72.78
2018-10-19T10:37:12.413Z,72.75
2018-10-19T10:38:11.813Z,72.49
2018-10-19T10:39:13.245Z,71.99
2018-10-19T10:40:12.708Z,72.04
2018-10-19T10:41:13.082Z,72.08
2018-10-19T10:42:14.370Z,71.70
2018-10-19T10:43:14.762Z,71.18
2018-10-19T10:44:14.014Z,71.26
2018-10-19T10:45:15.459Z,71.36
2018-10-19T10:46:15.867Z,71.68
2018-10-19T10:47:14.984Z,71.85
2018-10-19T10:48:16.297Z,72.39
2018-10-19T10:49:16.888Z,72.95
2018-10-19T10:50:16.442Z,72.48
2018-10-19T10:51:17.871Z,72.70
2018-10-19T10:52:18.160Z,73.03
2018-10-19T10:53:18.872Z,73.49
2018-10-19T10:54:19.730Z,74.02
2018-10-19T10:55:51.154Z,73.84
2018-10-19T10:56:52.372Z,73.77
2018-10-19T10:57:51.669Z,73.62
2018-10-19T10:58:51.883Z,74.19
2018-10-19T10:59:52.378Z,73.99
2018-10-19T11:00:52.700Z,73.78
2018-10-19T11:01:53.025Z,73.91
2018-10-19T11:02:53.917Z,73.79
2018-10-19T11:03:54.525Z,73.52
2018-10-19T11:04:55.085Z,73.84
2018-10-19T11:05:55.758Z,74.17
2018-10-19T11:06:56.326Z,73.97
2018-10-19T11:07:55.708Z,73.85
2018-10-19T11:08:57.330Z,73.78
2018-10-19T11:09:57.794Z,73.18
2018-10-19T11:10:57.174Z,73.26
2018-10-19T11:11:58.408Z,73.36
2018-10-19T11:12:58.857Z,73.61
2018-10-19T11:14:01.070Z,73.83
2018-10-19T11:14:59.460Z,72.71
2018-10-19T11:15:59.844Z,72.71
2018-10-19T11:16:59.571Z,72.92
2018-10-19T11:18:00.858Z,72.72
2018-10-19T11:19:01.195Z,72.94
2018-10-19T11:20:01.743Z,72.96
2018-10-19T11:21:02.029Z,72.42
2018-10-19T11:22:02.754Z,72.60
2018-10-19T11:23:01.950Z,72.55
2018-10-19T11:24:02.382Z,72.38
2018-10-19T11:25:02.695Z,72.49
2018-10-19T11:26:02.962Z,72.44
2018-10-19T11:27:04.397Z,71.95
2018-10-19T11:28:05.068Z,72.17
2018-10-19T11:29:04.328Z,72.22
2018-10-19T11:30:05.591Z,72.16
2018-10-19T11:31:06.575Z,72.44
2018-10-19T11:32:04.990Z,72.59
2018-10-19T11:33:06.489Z,72.71
2018-10-19T11:34:15.995Z,72.76
2018-10-19T11:35:06.309Z,73.24
2018-10-19T11:36:06.548Z,73.06
2018-10-19T11:37:07.894Z,73.89
2018-10-19T11:38:07.600Z,74.29
2018-10-19T11:39:07.996Z,74.85
2018-10-19T11:40:09.497Z,75.00
2018-10-19T11:41:08.931Z,74.82
2018-10-19T11:42:10.358Z,74.78
2018-10-19T11:43:10.265Z,74.71
2018-10-19T11:44:10.406Z,74.41
2018-10-19T11:45:11.788Z,74.27
2018-10-19T11:46:12.855Z,74.33
2018-10-19T11:47:12.022Z,74.67
2018-10-19T11:48:13.725Z,74.66
2018-10-19T11:49:14.310Z,74.96
2018-10-19T11:50:13.581Z,75.14
2018-10-19T11:51:14.927Z,75.45
2018-10-19T11:52:15.281Z,74.69
2018-10-19T11:53:15.741Z,73.77
2018-10-19T11:54:16.029Z,73.39
2018-10-19T11:55:16.540Z,72.99
2018-10-19T11:55:25.423Z,73.03
2018-10-19T11:56:26.268Z,72.97
2018-10-19T11:57:26.628Z,72.84
2018-10-19T11:58:27.068Z,72.82
2018-10-19T11:59:27.293Z,73.17
2018-10-19T12:00:27.873Z,72.64
2018-10-19T12:01:28.224Z,72.38
2018-10-19T12:02:28.594Z,72.35
2018-10-19T12:03:28.918Z,71.94
2018-10-19T12:04:28.265Z,72.06
2018-10-19T12:05:29.484Z,71.94
2018-10-19T12:06:30.130Z,71.84
2018-10-19T12:07:30.582Z,71.39
2018-10-19T12:08:30.282Z,71.48
2018-10-19T12:09:31.756Z,72.05
2018-10-19T12:10:32.308Z,71.96
2018-10-19T12:11:32.722Z,71.95
2018-10-19T12:12:36.045Z,72.12
2018-10-19T12:13:34.066Z,71.58
2018-10-19T12:14:33.744Z,71.83
2018-10-19T12:15:35.006Z,72.06
2018-10-19T12:16:35.646Z,72.30
2018-10-19T12:17:34.836Z,72.39
2018-10-19T12:18:36.288Z,72.59
2018-10-19T12:19:39.284Z,72.19
2018-10-19T12:20:36.212Z,73.15
2018-10-19T12:21:37.578Z,72.89
2018-10-19T12:22:37.836Z,73.58
2018-10-19T12:23:38.082Z,73.37
2018-10-19T12:24:38.487Z,73.67
2018-10-19T12:25:39.053Z,73.62
2018-10-19T12:26:39.520Z,73.52
2018-10-19T12:27:39.838Z,73.50
2018-10-19T12:28:40.347Z,73.46
2018-10-19T12:29:40.708Z,73.63
2018-10-19T12:30:42.450Z,73.30
2018-10-19T12:31:40.650Z,73.46
2018-10-19T12:32:42.002Z,73.39
2018-10-19T12:33:42.215Z,73.37
2018-10-19T12:34:42.794Z,73.30
2018-10-19T12:35:43.149Z,72.67
2018-10-19T12:36:43.712Z,73.03
2018-10-19T12:37:44.279Z,72.64
2018-10-19T12:38:44.770Z,72.51
2018-10-19T12:39:47.629Z,72.84
2018-10-19T12:40:44.709Z,72.87
2018-10-19T12:41:46.076Z,73.69
2018-10-19T12:42:46.766Z,73.43
2018-10-19T12:43:47.064Z,73.30
2018-10-19T12:44:46.358Z,73.10
2018-10-19T12:45:47.841Z,73.17
2018-10-19T12:45:56.575Z,73.49
2018-10-19T12:46:56.939Z,73.50
2018-10-19T12:47:57.591Z,73.30
2018-10-19T12:48:58.072Z,73.21